createdAt,value
2019-03-02T00:04:55.810Z,99.99
2019-03-02T00:09:52.863Z,99.99
2019-03-02T00:14:50.743Z,99.99
2019-03-02T00:19:47.276Z,99.99
2019-03-02T00:24:42.733Z,99.99
2019-03-02T00:29:38.326Z,99.99
2019-03-02T00:34:34.144Z,99.99
2019-03-02T00:39:29.880Z,99.99
2019-03-02T00:44:25.243Z,99.99
2019-03-02T00:49:22.948Z,99.99
2019-03-02T00:54:18.659Z,99.99
2019-03-02T00:59:14.546Z,99.99
2019-03-02T01:04:10.298Z,99.99
2019-03-02T01:09:07.887Z,99.99
2019-03-02T01:14:05.607Z,99.99
2019-03-02T01:19:01.907Z,99.99
2019-03-02T01:23:59.728Z,99.99
2019-03-02T01:28:57.284Z,99.99
2019-03-02T01:33:52.850Z,99.99
2019-03-02T01:38:50.589Z,99.99
2019-03-02T01:43:48.028Z,99.99
2019-03-02T01:48:43.492Z,99.99
2019-03-02T01:53:41.862Z,99.99
2019-03-02T01:58:38.401Z,99.99
2019-03-02T02:03:34.009Z,99.99
2019-03-02T02:08:30.730Z,99.99
2019-03-02T02:13:26.068Z,99.99
2019-03-02T02:18:27.354Z,99.99
2019-03-02T02:23:21.073Z,99.99
2019-03-02T02:28:17.142Z,99.99
2019-03-02T02:33:12.794Z,99.99
2019-03-02T02:38:11.121Z,99.99
2019-03-02T02:43:07.914Z,99.99
2019-03-02T02:48:04.681Z,99.99
2019-03-02T02:53:06.275Z,99.99
2019-03-02T02:57:58.874Z,99.99
2019-03-02T03:02:55.516Z,99.99
2019-03-02T03:07:54.034Z,99.99
2019-03-02T03:12:50.004Z,99.99
2019-03-02T03:17:45.517Z,99.99
2019-03-02T03:22:46.004Z,99.99
2019-03-02T03:27:41.574Z,99.99
2019-03-02T03:32:36.885Z,99.99
2019-03-02T03:37:32.100Z,99.99
2019-03-02T03:42:27.866Z,99.99
2019-03-02T03:47:24.498Z,99.99
2019-03-02T03:52:20.410Z,99.99
2019-03-02T03:57:17.157Z,99.99
2019-03-02T04:02:15.529Z,99.99
2019-03-02T04:07:11.158Z,99.99
2019-03-02T04:12:06.835Z,99.99
2019-03-02T04:17:02.512Z,99.99
2019-03-02T04:22:02.009Z,99.99
2019-03-02T04:26:58.447Z,99.99
2019-03-02T04:31:53.910Z,99.99
2019-03-02T04:36:49.424Z,99.99
2019-03-02T04:41:46.290Z,99.99
2019-03-02T04:46:42.284Z,99.99
2019-03-02T04:51:38.829Z,99.99
2019-03-02T04:56:34.996Z,99.99
2019-03-02T05:01:30.660Z,99.99
2019-03-02T05:06:26.325Z,99.99
2019-03-02T05:11:22.994Z,99.99
2019-03-02T05:16:19.089Z,99.99
2019-03-02T05:21:14.942Z,99.99
2019-03-02T05:26:10.108Z,99.99
2019-03-02T05:31:06.276Z,99.99
2019-03-02T05:36:02.631Z,99.99
2019-03-02T05:40:59.372Z,99.99
2019-03-02T05:45:58.061Z,99.99
2019-03-02T05:50:53.388Z,99.99
2019-03-02T05:55:49.864Z,99.99
2019-03-02T06:00:48.569Z,99.99
2019-03-02T06:05:44.281Z,99.99
2019-03-02T06:10:39.900Z,99.99
2019-03-02T06:15:35.353Z,99.99
2019-03-02T06:20:32.550Z,99.99
2019-03-02T06:25:30.667Z,99.99
2019-03-02T06:30:26.391Z,99.99
2019-03-02T06:35:22.018Z,99.99
2019-03-02T06:40:20.222Z,99.99
2019-03-02T06:45:16.816Z,99.99
2019-03-02T06:50:13.313Z,99.99
2019-03-02T06:55:10.039Z,99.99
2019-03-02T07:00:06.522Z,99.99
2019-03-02T07:05:02.031Z,99.99
2019-03-02T07:09:58.933Z,99.99
2019-03-02T07:14:54.301Z,99.99
2019-03-02T07:19:51.922Z,99.99
2019-03-02T07:24:47.621Z,99.99
2019-03-02T07:29:44.902Z,99.99
2019-03-02T07:34:40.692Z,99.99
2019-03-02T07:39:38.399Z,99.99
2019-03-02T07:44:33.875Z,99.99
2019-03-02T07:49:29.627Z,99.99
2019-03-02T07:54:26.484Z,99.99
2019-03-02T07:59:22.072Z,99.99
2019-03-02T08:04:17.837Z,99.99
2019-03-02T08:09:13.858Z,99.99
2019-03-02T08:14:12.279Z,99.99
2019-03-02T08:19:07.278Z,99.99
2019-03-02T08:24:02.797Z,99.99
2019-03-02T08:28:59.644Z,99.99
2019-03-02T08:33:58.449Z,99.99
2019-03-02T08:38:53.583Z,99.99
2019-03-02T08:43:49.394Z,99.99
2019-03-02T08:48:45.147Z,99.99
2019-03-02T08:53:40.777Z,99.99
2019-03-02T08:58:36.569Z,99.99
2019-03-02T09:03:33.845Z,99.99
2019-03-02T09:08:31.586Z,99.99
2019-03-02T09:13:27.123Z,99.99
2019-03-02T09:18:22.841Z,99.99
2019-03-02T09:23:18.498Z,99.99
2019-03-02T09:28:14.382Z,99.99
2019-03-02T09:33:11.199Z,99.99
2019-03-02T09:38:06.356Z,99.99
2019-03-02T09:43:02.098Z,99.99
2019-03-02T09:47:58.958Z,99.99
2019-03-02T09:52:55.816Z,99.99
2019-03-02T09:57:51.087Z,99.99
2019-03-02T10:02:49.998Z,99.99
2019-03-02T10:07:46.859Z,99.99
2019-03-02T10:12:47.403Z,99.99
2019-03-02T10:17:42.984Z,99.99
2019-03-02T10:22:38.996Z,99.99
2019-03-02T10:27:34.642Z,99.99
2019-03-02T10:32:31.472Z,99.99
2019-03-02T10:37:27.052Z,99.99
2019-03-02T10:42:23.432Z,99.99
2019-03-02T10:47:19.362Z,99.99
2019-03-02T10:52:16.108Z,99.99
2019-03-02T10:57:12.479Z,99.99
2019-03-02T11:02:08.613Z,99.99
2019-03-02T11:07:05.039Z,99.99
2019-03-02T11:12:02.877Z,99.99
2019-03-02T11:17:01.613Z,99.99
2019-03-02T11:21:58.529Z,99.99
2019-03-02T11:26:53.994Z,99.99
2019-03-02T11:31:49.896Z,99.99
2019-03-02T11:36:49.288Z,99.99
2019-03-02T11:41:44.352Z,99.99
2019-03-02T11:46:40.130Z,99.99
2019-03-02T11:51:35.739Z,99.99
2019-03-02T11:56:31.447Z,99.99
2019-03-02T12:01:30.063Z,99.99
2019-03-02T12:06:27.275Z,99.99
2019-03-02T12:11:22.876Z,99.99
2019-03-02T12:16:22.142Z,99.99
2019-03-02T12:21:21.265Z,99.99
2019-03-02T12:26:16.594Z,99.99
2019-03-02T12:31:12.680Z,99.99
2019-03-02T12:36:08.783Z,99.99
2019-03-02T12:41:04.949Z,99.99
2019-03-02T12:46:01.871Z,99.99
2019-03-02T12:50:58.608Z,99.99
2019-03-02T12:55:56.907Z,99.99
2019-03-02T13:00:53.296Z,99.99
2019-03-02T13:05:48.947Z,99.99
2019-03-02T13:10:49.360Z,99.99
2019-03-02T13:15:46.394Z,99.99
2019-03-02T13:20:44.072Z,99.99
2019-03-02T13:25:39.636Z,99.99
2019-03-02T13:30:35.023Z,99.99
2019-03-02T13:35:30.762Z,99.99
2019-03-02T13:40:29.641Z,99.99
2019-03-02T13:45:26.948Z,99.99
2019-03-02T13:50:22.923Z,99.99
2019-03-02T13:55:18.692Z,99.99
2019-03-02T14:00:14.943Z,99.99
2019-03-02T14:05:10.756Z,99.99
2019-03-02T14:10:06.792Z,99.99
2019-03-02T14:15:03.051Z,99.99
2019-03-02T14:20:01.800Z,99.99
2019-03-02T14:24:57.418Z,99.99
2019-03-02T14:29:53.218Z,99.99
2019-03-02T14:34:49.731Z,99.99
2019-03-02T14:39:45.293Z,99.99
2019-03-02T14:44:41.081Z,99.41
2019-03-02T14:49:37.157Z,99.13
2019-03-02T14:54:32.871Z,98.46
2019-03-02T14:59:29.716Z,99.04
2019-03-02T15:04:24.940Z,98.56
2019-03-02T15:09:21.846Z,99.60
2019-03-02T15:14:17.148Z,99.32
2019-03-02T15:19:12.862Z,99.89
2019-03-02T15:24:11.425Z,99.80
2019-03-02T15:29:09.947Z,99.99
2019-03-02T15:34:10.260Z,99.99
2019-03-02T15:39:08.066Z,99.99
2019-03-02T15:44:07.033Z,99.99
2019-03-02T15:49:04.824Z,99.99
2019-03-02T15:54:00.370Z,99.99
2019-03-02T15:58:59.491Z,99.99
2019-03-02T16:03:57.320Z,99.99
2019-03-02T16:08:53.549Z,99.99
2019-03-02T16:13:50.260Z,99.99
2019-03-02T16:18:49.181Z,99.99
2019-03-02T16:23:47.265Z,99.99
2019-03-02T16:28:43.728Z,99.99
2019-03-02T16:33:39.643Z,99.99
2019-03-02T16:38:35.247Z,99.99
2019-03-02T16:43:33.432Z,99.99
2019-03-02T16:48:29.008Z,99.99
2019-03-02T16:53:24.561Z,99.99
2019-03-02T16:58:21.247Z,99.99
2019-03-02T17:03:16.657Z,99.99
2019-03-02T17:08:12.808Z,99.99
2019-03-02T17:13:08.602Z,99.99
2019-03-02T17:18:07.216Z,99.99
2019-03-02T17:23:05.272Z,99.99
2019-03-02T17:28:01.389Z,99.99
2019-03-02T17:32:56.974Z,99.99
2019-03-02T17:37:53.715Z,99.99
2019-03-02T17:42:50.221Z,99.99
2019-03-02T17:47:45.497Z,99.99
2019-03-02T17:52:43.124Z,99.99
2019-03-02T17:57:38.251Z,99.99
2019-03-02T18:02:33.994Z,99.99
2019-03-02T18:07:33.154Z,99.99
2019-03-02T18:12:30.346Z,99.99
2019-03-02T18:17:25.924Z,99.99
2019-03-02T18:22:21.686Z,99.99
2019-03-02T18:27:19.918Z,99.99
2019-03-02T18:32:15.134Z,99.99
2019-03-02T18:37:11.686Z,99.99
2019-03-02T18:42:07.076Z,99.99
2019-03-02T18:47:04.818Z,99.99
2019-03-02T18:52:00.660Z,99.99
2019-03-02T18:56:56.615Z,99.99
2019-03-02T19:01:52.329Z,99.99
2019-03-02T19:06:49.093Z,99.99
2019-03-02T19:11:45.618Z,99.99
2019-03-02T19:16:41.094Z,99.99
2019-03-02T19:21:36.763Z,99.99
2019-03-02T19:26:32.549Z,99.99
2019-03-02T19:31:28.142Z,99.99
2019-03-02T19:36:23.724Z,99.99
2019-03-02T19:41:20.617Z,99.99
2019-03-02T19:46:15.961Z,99.99
2019-03-02T19:51:11.775Z,99.99
2019-03-02T19:56:08.306Z,99.99
2019-03-02T20:01:03.776Z,99.99
2019-03-02T20:05:59.607Z,99.99
2019-03-02T20:10:55.340Z,99.99
2019-03-02T20:15:51.412Z,99.99
2019-03-02T20:20:48.330Z,99.99
2019-03-02T20:25:43.527Z,99.99
2019-03-02T20:30:39.457Z,99.99
2019-03-02T20:35:35.740Z,99.99
2019-03-02T20:40:31.485Z,99.99
2019-03-02T20:45:27.184Z,99.99
2019-03-02T20:50:24.679Z,99.99
2019-03-02T20:55:20.282Z,99.99
2019-03-02T21:00:16.474Z,99.99
2019-03-02T21:05:12.199Z,99.99
2019-03-02T21:10:08.157Z,99.99
2019-03-02T21:15:03.519Z,99.99
2019-03-02T21:19:59.520Z,99.99
2019-03-02T21:24:55.215Z,99.99
2019-03-02T21:29:52.065Z,99.99
2019-03-02T21:34:48.387Z,99.99
2019-03-02T21:39:43.853Z,99.99
2019-03-02T21:44:40.470Z,99.99
2019-03-02T21:49:35.865Z,99.99
2019-03-02T21:54:31.832Z,99.99
2019-03-02T21:59:28.920Z,99.99
2019-03-02T22:04:24.378Z,99.99
2019-03-02T22:09:21.151Z,99.99
2019-03-02T22:14:17.581Z,99.99
2019-03-02T22:19:13.983Z,99.99
2019-03-02T22:24:09.441Z,99.99
2019-03-02T22:29:06.279Z,99.99
2019-03-02T22:34:01.992Z,99.99
2019-03-02T22:38:58.793Z,99.99
2019-03-02T22:43:54.501Z,99.99
2019-03-02T22:48:50.401Z,99.99
2019-03-02T22:53:45.944Z,99.99
2019-03-02T22:58:41.500Z,99.99
2019-03-02T23:03:38.569Z,99.99
2019-03-02T23:08:34.074Z,99.99
2019-03-02T23:13:29.663Z,99.99
2019-03-02T23:18:25.824Z,99.99
2019-03-02T23:23:21.676Z,99.99
2019-03-02T23:28:17.311Z,99.99
2019-03-02T23:33:13.327Z,99.99
2019-03-02T23:38:09.057Z,99.99
2019-03-02T23:43:04.986Z,99.99
2019-03-02T23:48:01.126Z,99.99
2019-03-02T23:52:57.605Z,99.99
2019-03-02T23:57:53.852Z,99.99
